sensor_id;sensor_type;location;lat;lon;timestamp;temperature;humidity
10572;DHT22;5334;48.928;12.704;2023-07-31T00:00:13;16.40;99.90
10572;DHT22;5334;48.928;12.704;2023-07-31T00:02:38;16.30;99.90
10572;DHT22;5334;48.928;12.704;2023-07-31T00:07:35;16.30;99.90
10572;DHT22;5334;48.928;12.704;2023-07-31T00:10:04;16.30;99.90
10572;DHT22;5334;48.928;12.704;2023-07-31T00:12:32;16.20;99.90
10572;DHT22;5334;48.928;12.704;2023-07-31T00:17:24;16.20;99.90
10572;DHT22;5334;48.928;12.704;2023-07-31T00:19:50;16.20;99.90
10572;DHT22;5334;48.928;12.704;2023-07-31T00:22:19;16.20;99.90
10572;DHT22;5334;48.928;12.704;2023-07-31T00:24:47;16.20;99.90
10572;DHT22;5334;48.928;12.704;2023-07-31T00:27:13;16.10;99.90
10572;DHT22;5334;48.928;12.704;2023-07-31T00:29:38;16.10;99.90
10572;DHT22;5334;48.928;12.704;2023-07-31T00:32:04;16.10;99.90
10572;DHT22;5334;48.928;12.704;2023-07-31T00:34:30;16.00;99.90
10572;DHT22;5334;48.928;12.704;2023-07-31T00:37:02;15.90;99.90
10572;DHT22;5334;48.928;12.704;2023-07-31T00:41:57;15.80;99.90
10572;DHT22;5334;48.928;12.704;2023-07-31T00:44:25;15.70;99.90
10572;DHT22;5334;48.928;12.704;2023-07-31T00:46:51;15.60;99.90
10572;DHT22;5334;48.928;12.704;2023-07-31T00:49:20;15.50;99.90
10572;DHT22;5334;48.928;12.704;2023-07-31T00:51:49;15.40;99.90
10572;DHT22;5334;48.928;12.704;2023-07-31T00:54:20;15.40;99.90
10572;DHT22;5334;48.928;12.704;2023-07-31T00:56:46;15.30;99.90
10572;DHT22;5334;48.928;12.704;2023-07-31T00:59:14;15.30;99.90
10572;DHT22;5334;48.928;12.704;2023-07-31T01:01:49;15.30;99.90
10572;DHT22;5334;48.928;12.704;2023-07-31T01:04:15;15.30;99.90
10572;DHT22;5334;48.928;12.704;2023-07-31T01:07:11;15.30;99.90
10572;DHT22;5334;48.928;12.704;2023-07-31T01:09:45;15.30;99.90
10572;DHT22;5334;48.928;12.704;2023-07-31T01:12:16;15.20;99.90
10572;DHT22;5334;48.928;12.704;2023-07-31T01:17:32;15.10;99.90
10572;DHT22;5334;48.928;12.704;2023-07-31T01:20:01;15.10;99.90
10572;DHT22;5334;48.928;12.704;2023-07-31T01:26:00;15.00;99.90
10572;DHT22;5334;48.928;12.704;2023-07-31T01:34:09;14.70;99.90
10572;DHT22;5334;48.928;12.704;2023-07-31T01:36:38;14.70;99.90
10572;DHT22;5334;48.928;12.704;2023-07-31T01:39:04;14.60;99.90
10572;DHT22;5334;48.928;12.704;2023-07-31T01:41:39;14.60;99.90
10572;DHT22;5334;48.928;12.704;2023-07-31T01:44:05;14.60;99.90
10572;DHT22;5334;48.928;12.704;2023-07-31T01:46:31;14.60;99.90
10572;DHT22;5334;48.928;12.704;2023-07-31T01:48:56;14.60;99.90
10572;DHT22;5334;48.928;12.704;2023-07-31T01:51:25;14.60;99.90
10572;DHT22;5334;48.928;12.704;2023-07-31T01:53:50;14.50;99.90
10572;DHT22;5334;48.928;12.704;2023-07-31T01:56:16;14.50;99.90
10572;DHT22;5334;48.928;12.704;2023-07-31T01:58:44;14.60;99.90
10572;DHT22;5334;48.928;12.704;2023-07-31T02:01:13;14.60;99.90
10572;DHT22;5334;48.928;12.704;2023-07-31T02:03:39;14.60;99.90
10572;DHT22;5334;48.928;12.704;2023-07-31T02:06:04;14.60;99.90
10572;DHT22;5334;48.928;12.704;2023-07-31T02:08:30;14.60;99.90
10572;DHT22;5334;48.928;12.704;2023-07-31T02:10:56;14.50;99.90
10572;DHT22;5334;48.928;12.704;2023-07-31T02:13:21;14.50;99.90
10572;DHT22;5334;48.928;12.704;2023-07-31T02:15:48;14.50;99.90
10572;DHT22;5334;48.928;12.704;2023-07-31T02:18:13;14.50;99.90
10572;DHT22;5334;48.928;12.704;2023-07-31T02:20:39;14.50;99.90
10572;DHT22;5334;48.928;12.704;2023-07-31T02:23:05;14.50;99.90
10572;DHT22;5334;48.928;12.704;2023-07-31T02:25:33;14.50;99.90
10572;DHT22;5334;48.928;12.704;2023-07-31T02:27:59;14.50;99.90
10572;DHT22;5334;48.928;12.704;2023-07-31T02:30:25;14.50;99.90
10572;DHT22;5334;48.928;12.704;2023-07-31T02:32:50;14.40;99.90
10572;DHT22;5334;48.928;12.704;2023-07-31T02:35:16;14.40;99.90
10572;DHT22;5334;48.928;12.704;2023-07-31T02:37:42;14.30;99.90
10572;DHT22;5334;48.928;12.704;2023-07-31T02:40:08;14.30;99.90
10572;DHT22;5334;48.928;12.704;2023-07-31T02:42:39;14.20;99.90
10572;DHT22;5334;48.928;12.704;2023-07-31T02:45:06;14.20;99.90
10572;DHT22;5334;48.928;12.704;2023-07-31T02:47:34;14.10;99.90
10572;DHT22;5334;48.928;12.704;2023-07-31T02:50:01;14.10;99.90
10572;DHT22;5334;48.928;12.704;2023-07-31T02:52:33;14.10;99.90
10572;DHT22;5334;48.928;12.704;2023-07-31T02:55:02;14.10;99.90
10572;DHT22;5334;48.928;12.704;2023-07-31T02:57:27;14.10;99.90
10572;DHT22;5334;48.928;12.704;2023-07-31T02:59:53;14.00;99.90
10572;DHT22;5334;48.928;12.704;2023-07-31T03:02:19;14.00;99.90
10572;DHT22;5334;48.928;12.704;2023-07-31T03:04:50;13.90;99.90
10572;DHT22;5334;48.928;12.704;2023-07-31T03:07:19;13.90;99.90
10572;DHT22;5334;48.928;12.704;2023-07-31T03:09:53;13.90;99.90
10572;DHT22;5334;48.928;12.704;2023-07-31T03:12:22;13.90;99.90
10572;DHT22;5334;48.928;12.704;2023-07-31T03:14:51;13.90;99.90
10572;DHT22;5334;48.928;12.704;2023-07-31T03:17:32;13.90;99.90
10572;DHT22;5334;48.928;12.704;2023-07-31T03:20:04;13.90;99.90
10572;DHT22;5334;48.928;12.704;2023-07-31T03:22:33;13.90;99.90
10572;DHT22;5334;48.928;12.704;2023-07-31T03:25:01;13.80;99.90
10572;DHT22;5334;48.928;12.704;2023-07-31T03:27:36;13.80;99.90
10572;DHT22;5334;48.928;12.704;2023-07-31T03:30:02;13.80;99.90
10572;DHT22;5334;48.928;12.704;2023-07-31T03:32:40;13.80;99.90
10572;DHT22;5334;48.928;12.704;2023-07-31T03:35:12;13.80;99.90
10572;DHT22;5334;48.928;12.704;2023-07-31T03:37:38;13.80;99.90
10572;DHT22;5334;48.928;12.704;2023-07-31T03:40:04;13.80;99.90
10572;DHT22;5334;48.928;12.704;2023-07-31T03:42:30;13.70;99.90
10572;DHT22;5334;48.928;12.704;2023-07-31T03:44:55;13.70;99.90
10572;DHT22;5334;48.928;12.704;2023-07-31T03:47:21;13.70;99.90
10572;DHT22;5334;48.928;12.704;2023-07-31T03:49:49;13.70;99.90
10572;DHT22;5334;48.928;12.704;2023-07-31T03:52:15;13.70;99.90
10572;DHT22;5334;48.928;12.704;2023-07-31T03:54:47;13.70;99.90
10572;DHT22;5334;48.928;12.704;2023-07-31T03:57:15;13.70;99.90
10572;DHT22;5334;48.928;12.704;2023-07-31T03:59:44;13.80;99.90
10572;DHT22;5334;48.928;12.704;2023-07-31T04:02:10;13.80;99.90
10572;DHT22;5334;48.928;12.704;2023-07-31T04:04:39;13.80;99.90
10572;DHT22;5334;48.928;12.704;2023-07-31T04:07:07;13.80;99.90
10572;DHT22;5334;48.928;12.704;2023-07-31T04:09:33;13.80;99.90
10572;DHT22;5334;48.928;12.704;2023-07-31T04:12:08;13.90;99.90
10572;DHT22;5334;48.928;12.704;2023-07-31T04:14:39;13.80;99.90
10572;DHT22;5334;48.928;12.704;2023-07-31T04:17:11;13.90;99.90
10572;DHT22;5334;48.928;12.704;2023-07-31T04:19:37;13.80;99.90
10572;DHT22;5334;48.928;12.704;2023-07-31T04:22:03;13.90;99.90
10572;DHT22;5334;48.928;12.704;2023-07-31T04:24:34;13.80;99.90
10572;DHT22;5334;48.928;12.704;2023-07-31T04:27:03;13.90;99.90
10572;DHT22;5334;48.928;12.704;2023-07-31T04:31:55;13.90;99.90
10572;DHT22;5334;48.928;12.704;2023-07-31T04:34:20;13.90;99.90
10572;DHT22;5334;48.928;12.704;2023-07-31T04:36:49;13.90;99.90
10572;DHT22;5334;48.928;12.704;2023-07-31T04:39:14;14.00;99.90
10572;DHT22;5334;48.928;12.704;2023-07-31T04:41:40;14.00;99.90
10572;DHT22;5334;48.928;12.704;2023-07-31T04:44:06;14.00;99.90
10572;DHT22;5334;48.928;12.704;2023-07-31T04:46:44;13.90;99.90
10572;DHT22;5334;48.928;12.704;2023-07-31T04:49:11;13.90;99.90
10572;DHT22;5334;48.928;12.704;2023-07-31T04:51:37;13.90;99.90
10572;DHT22;5334;48.928;12.704;2023-07-31T04:54:06;13.90;99.90
10572;DHT22;5334;48.928;12.704;2023-07-31T04:56:31;14.00;99.90
10572;DHT22;5334;48.928;12.704;2023-07-31T04:58:57;14.20;99.90
10572;DHT22;5334;48.928;12.704;2023-07-31T05:01:22;14.20;99.90
10572;DHT22;5334;48.928;12.704;2023-07-31T05:03:54;14.40;99.90
10572;DHT22;5334;48.928;12.704;2023-07-31T05:06:20;14.60;99.90
10572;DHT22;5334;48.928;12.704;2023-07-31T05:08:58;14.80;99.90
10572;DHT22;5334;48.928;12.704;2023-07-31T05:11:23;15.00;99.90
10572;DHT22;5334;48.928;12.704;2023-07-31T05:13:49;15.20;99.90
10572;DHT22;5334;48.928;12.704;2023-07-31T05:16:14;15.30;99.90
10572;DHT22;5334;48.928;12.704;2023-07-31T05:18:43;15.50;99.90
10572;DHT22;5334;48.928;12.704;2023-07-31T05:21:08;15.60;99.90
10572;DHT22;5334;48.928;12.704;2023-07-31T05:23:40;15.80;99.90
10572;DHT22;5334;48.928;12.704;2023-07-31T05:26:06;16.00;99.90
10572;DHT22;5334;48.928;12.704;2023-07-31T05:28:36;16.20;99.90
10572;DHT22;5334;48.928;12.704;2023-07-31T05:31:08;16.40;99.90
10572;DHT22;5334;48.928;12.704;2023-07-31T05:33:40;16.50;99.90
10572;DHT22;5334;48.928;12.704;2023-07-31T05:36:14;16.80;99.90
10572;DHT22;5334;48.928;12.704;2023-07-31T05:38:52;16.90;99.90
10572;DHT22;5334;48.928;12.704;2023-07-31T05:41:17;17.20;99.90
10572;DHT22;5334;48.928;12.704;2023-07-31T05:46:12;17.70;99.90
10572;DHT22;5334;48.928;12.704;2023-07-31T05:48:44;17.90;99.90
10572;DHT22;5334;48.928;12.704;2023-07-31T05:51:10;18.10;99.90
10572;DHT22;5334;48.928;12.704;2023-07-31T05:53:35;18.30;99.90
10572;DHT22;5334;48.928;12.704;2023-07-31T05:56:15;18.50;99.90
10572;DHT22;5334;48.928;12.704;2023-07-31T05:58:49;18.70;99.90
10572;DHT22;5334;48.928;12.704;2023-07-31T06:01:21;18.80;99.90
10572;DHT22;5334;48.928;12.704;2023-07-31T06:03:47;19.00;99.90
10572;DHT22;5334;48.928;12.704;2023-07-31T06:06:19;19.00;99.90
10572;DHT22;5334;48.928;12.704;2023-07-31T06:08:45;19.00;99.90
10572;DHT22;5334;48.928;12.704;2023-07-31T06:11:11;19.00;99.90
10572;DHT22;5334;48.928;12.704;2023-07-31T06:13:36;18.80;99.90
10572;DHT22;5334;48.928;12.704;2023-07-31T06:16:11;18.70;99.90
10572;DHT22;5334;48.928;12.704;2023-07-31T06:18:37;18.80;99.90
10572;DHT22;5334;48.928;12.704;2023-07-31T06:21:09;18.80;99.90
10572;DHT22;5334;48.928;12.704;2023-07-31T06:23:47;19.00;99.90
10572;DHT22;5334;48.928;12.704;2023-07-31T06:26:13;19.00;99.90
10572;DHT22;5334;48.928;12.704;2023-07-31T06:28:38;19.20;99.90
10572;DHT22;5334;48.928;12.704;2023-07-31T06:31:07;19.40;99.90
10572;DHT22;5334;48.928;12.704;2023-07-31T06:33:41;19.20;99.90
10572;DHT22;5334;48.928;12.704;2023-07-31T06:36:10;19.20;99.90
10572;DHT22;5334;48.928;12.704;2023-07-31T06:38:36;19.50;99.90
10572;DHT22;5334;48.928;12.704;2023-07-31T06:41:03;19.60;99.90
10572;DHT22;5334;48.928;12.704;2023-07-31T06:43:35;19.70;99.90
10572;DHT22;5334;48.928;12.704;2023-07-31T06:46:07;20.00;99.90
10572;DHT22;5334;48.928;12.704;2023-07-31T06:48:36;20.00;99.90
10572;DHT22;5334;48.928;12.704;2023-07-31T06:51:03;19.90;99.90
10572;DHT22;5334;48.928;12.704;2023-07-31T06:53:31;20.00;99.90
10572;DHT22;5334;48.928;12.704;2023-07-31T06:55:57;20.10;99.90
10572;DHT22;5334;48.928;12.704;2023-07-31T06:58:35;20.30;99.90
10572;DHT22;5334;48.928;12.704;2023-07-31T07:01:01;20.30;99.90
10572;DHT22;5334;48.928;12.704;2023-07-31T07:03:27;20.60;99.90
10572;DHT22;5334;48.928;12.704;2023-07-31T07:06:05;20.50;99.90
10572;DHT22;5334;48.928;12.704;2023-07-31T07:08:34;20.60;99.90
10572;DHT22;5334;48.928;12.704;2023-07-31T07:10:59;20.40;99.90
10572;DHT22;5334;48.928;12.704;2023-07-31T07:13:25;20.50;99.90
10572;DHT22;5334;48.928;12.704;2023-07-31T07:15:51;20.60;99.90
10572;DHT22;5334;48.928;12.704;2023-07-31T07:18:18;20.60;99.90
10572;DHT22;5334;48.928;12.704;2023-07-31T07:20:53;20.80;99.90
10572;DHT22;5334;48.928;12.704;2023-07-31T07:23:20;21.00;99.90
10572;DHT22;5334;48.928;12.704;2023-07-31T07:25:49;21.10;99.90
10572;DHT22;5334;48.928;12.704;2023-07-31T07:28:18;21.20;99.90
10572;DHT22;5334;48.928;12.704;2023-07-31T07:30:52;21.30;99.90
10572;DHT22;5334;48.928;12.704;2023-07-31T07:33:19;21.40;99.90
10572;DHT22;5334;48.928;12.704;2023-07-31T07:35:45;21.50;99.90
10572;DHT22;5334;48.928;12.704;2023-07-31T07:38:10;21.70;99.90
10572;DHT22;5334;48.928;12.704;2023-07-31T07:40:55;21.80;99.90
10572;DHT22;5334;48.928;12.704;2023-07-31T07:43:20;21.60;99.90
10572;DHT22;5334;48.928;12.704;2023-07-31T07:45:49;21.30;99.90
10572;DHT22;5334;48.928;12.704;2023-07-31T07:48:15;21.40;99.90
10572;DHT22;5334;48.928;12.704;2023-07-31T07:50:42;21.40;99.90
10572;DHT22;5334;48.928;12.704;2023-07-31T07:53:08;21.30;99.90
10572;DHT22;5334;48.928;12.704;2023-07-31T07:55:35;21.30;99.90
10572;DHT22;5334;48.928;12.704;2023-07-31T07:58:00;21.20;99.90
10572;DHT22;5334;48.928;12.704;2023-07-31T08:00:26;21.20;99.90
10572;DHT22;5334;48.928;12.704;2023-07-31T08:03:01;21.20;99.90
10572;DHT22;5334;48.928;12.704;2023-07-31T08:05:26;21.20;99.90
10572;DHT22;5334;48.928;12.704;2023-07-31T08:07:52;21.20;99.90
10572;DHT22;5334;48.928;12.704;2023-07-31T08:10:18;21.10;99.90
10572;DHT22;5334;48.928;12.704;2023-07-31T08:12:47;21.20;99.90
10572;DHT22;5334;48.928;12.704;2023-07-31T08:15:15;21.20;99.90
10572;DHT22;5334;48.928;12.704;2023-07-31T08:17:41;21.20;99.90
10572;DHT22;5334;48.928;12.704;2023-07-31T08:20:10;21.40;99.90
10572;DHT22;5334;48.928;12.704;2023-07-31T08:22:38;21.30;99.90
10572;DHT22;5334;48.928;12.704;2023-07-31T08:25:13;21.50;99.90
10572;DHT22;5334;48.928;12.704;2023-07-31T08:27:41;21.70;99.90
10572;DHT22;5334;48.928;12.704;2023-07-31T08:32:34;22.10;99.90
10572;DHT22;5334;48.928;12.704;2023-07-31T08:34:59;22.20;99.90
10572;DHT22;5334;48.928;12.704;2023-07-31T08:37:34;22.40;99.90
10572;DHT22;5334;48.928;12.704;2023-07-31T08:40:06;22.40;99.90
10572;DHT22;5334;48.928;12.704;2023-07-31T08:42:32;22.50;99.90
10572;DHT22;5334;48.928;12.704;2023-07-31T08:45:04;22.50;99.90
10572;DHT22;5334;48.928;12.704;2023-07-31T08:47:47;22.20;99.90
10572;DHT22;5334;48.928;12.704;2023-07-31T08:50:18;21.90;99.90
10572;DHT22;5334;48.928;12.704;2023-07-31T08:52:45;21.70;99.90
10572;DHT22;5334;48.928;12.704;2023-07-31T08:55:11;21.60;99.90
10572;DHT22;5334;48.928;12.704;2023-07-31T08:57:42;21.60;99.90
10572;DHT22;5334;48.928;12.704;2023-07-31T09:00:09;21.60;99.90
10572;DHT22;5334;48.928;12.704;2023-07-31T09:02:45;21.50;99.90
10572;DHT22;5334;48.928;12.704;2023-07-31T09:05:11;21.40;99.90
10572;DHT22;5334;48.928;12.704;2023-07-31T09:07:38;21.30;99.90
10572;DHT22;5334;48.928;12.704;2023-07-31T09:10:10;21.20;99.90
10572;DHT22;5334;48.928;12.704;2023-07-31T09:12:39;21.20;99.90
10572;DHT22;5334;48.928;12.704;2023-07-31T09:15:05;21.10;99.90
10572;DHT22;5334;48.928;12.704;2023-07-31T09:17:40;21.10;99.90
10572;DHT22;5334;48.928;12.704;2023-07-31T09:20:16;21.30;99.90
10572;DHT22;5334;48.928;12.704;2023-07-31T09:22:48;21.60;99.90
10572;DHT22;5334;48.928;12.704;2023-07-31T09:25:15;21.80;99.90
10572;DHT22;5334;48.928;12.704;2023-07-31T09:28:01;22.00;99.90
10572;DHT22;5334;48.928;12.704;2023-07-31T09:30:27;22.30;99.90
10572;DHT22;5334;48.928;12.704;2023-07-31T09:33:02;22.50;99.90
10572;DHT22;5334;48.928;12.704;2023-07-31T09:35:40;23.10;99.90
10572;DHT22;5334;48.928;12.704;2023-07-31T09:38:14;23.70;99.90
10572;DHT22;5334;48.928;12.704;2023-07-31T09:40:45;24.00;99.90
10572;DHT22;5334;48.928;12.704;2023-07-31T09:43:13;24.30;99.40
10572;DHT22;5334;48.928;12.704;2023-07-31T09:45:52;24.30;98.30
10572;DHT22;5334;48.928;12.704;2023-07-31T09:48:19;24.30;99.50
10572;DHT22;5334;48.928;12.704;2023-07-31T09:50:46;24.50;99.30
10572;DHT22;5334;48.928;12.704;2023-07-31T09:53:12;24.70;98.10
10572;DHT22;5334;48.928;12.704;2023-07-31T09:55:41;24.80;97.90
10572;DHT22;5334;48.928;12.704;2023-07-31T09:58:12;24.60;97.10
10572;DHT22;5334;48.928;12.704;2023-07-31T10:00:41;24.40;97.90
10572;DHT22;5334;48.928;12.704;2023-07-31T10:03:08;24.60;98.70
10572;DHT22;5334;48.928;12.704;2023-07-31T10:05:45;24.80;97.80
10572;DHT22;5334;48.928;12.704;2023-07-31T10:08:33;24.80;97.20
10572;DHT22;5334;48.928;12.704;2023-07-31T10:11:05;24.70;97.60
10572;DHT22;5334;48.928;12.704;2023-07-31T10:13:32;24.40;97.40
10572;DHT22;5334;48.928;12.704;2023-07-31T10:15:59;24.30;97.90
10572;DHT22;5334;48.928;12.704;2023-07-31T10:18:26;24.00;97.50
10572;DHT22;5334;48.928;12.704;2023-07-31T10:20:56;23.80;98.60
10572;DHT22;5334;48.928;12.704;2023-07-31T10:23:34;24.00;98.20
10572;DHT22;5334;48.928;12.704;2023-07-31T10:26:07;24.40;98.50
10572;DHT22;5334;48.928;12.704;2023-07-31T10:28:40;24.50;97.60
10572;DHT22;5334;48.928;12.704;2023-07-31T10:31:09;24.40;97.60
10572;DHT22;5334;48.928;12.704;2023-07-31T10:33:38;24.30;96.60
10572;DHT22;5334;48.928;12.704;2023-07-31T10:36:20;24.30;97.50
10572;DHT22;5334;48.928;12.704;2023-07-31T10:38:49;24.50;97.20
10572;DHT22;5334;48.928;12.704;2023-07-31T10:41:19;24.60;96.80
10572;DHT22;5334;48.928;12.704;2023-07-31T10:43:53;24.40;97.00
10572;DHT22;5334;48.928;12.704;2023-07-31T10:46:19;24.50;97.30
10572;DHT22;5334;48.928;12.704;2023-07-31T10:49:12;24.60;97.50
10572;DHT22;5334;48.928;12.704;2023-07-31T10:51:47;24.40;96.50
10572;DHT22;5334;48.928;12.704;2023-07-31T10:54:16;24.20;97.40
10572;DHT22;5334;48.928;12.704;2023-07-31T10:56:50;24.60;97.00
10572;DHT22;5334;48.928;12.704;2023-07-31T10:59:15;25.00;96.80
10572;DHT22;5334;48.928;12.704;2023-07-31T11:02:04;24.80;96.70
10572;DHT22;5334;48.928;12.704;2023-07-31T11:04:30;24.90;96.10
10572;DHT22;5334;48.928;12.704;2023-07-31T11:07:02;25.10;96.60
10572;DHT22;5334;48.928;12.704;2023-07-31T11:09:31;25.30;96.40
10572;DHT22;5334;48.928;12.704;2023-07-31T11:12:09;24.90;96.50
10572;DHT22;5334;48.928;12.704;2023-07-31T11:14:37;25.30;96.50
10572;DHT22;5334;48.928;12.704;2023-07-31T11:17:11;25.40;96.80
10572;DHT22;5334;48.928;12.704;2023-07-31T11:19:43;25.50;97.10
10572;DHT22;5334;48.928;12.704;2023-07-31T11:22:08;25.60;96.40
10572;DHT22;5334;48.928;12.704;2023-07-31T11:24:40;25.40;96.10
10572;DHT22;5334;48.928;12.704;2023-07-31T11:27:10;25.10;95.70
10572;DHT22;5334;48.928;12.704;2023-07-31T11:29:41;25.10;96.50
10572;DHT22;5334;48.928;12.704;2023-07-31T11:32:16;25.10;96.80
10572;DHT22;5334;48.928;12.704;2023-07-31T11:35:05;25.10;97.10
10572;DHT22;5334;48.928;12.704;2023-07-31T11:37:42;24.80;96.60
10572;DHT22;5334;48.928;12.704;2023-07-31T11:40:11;24.20;97.00
10572;DHT22;5334;48.928;12.704;2023-07-31T11:42:40;24.10;96.60
10572;DHT22;5334;48.928;12.704;2023-07-31T11:45:07;24.70;96.60
10572;DHT22;5334;48.928;12.704;2023-07-31T11:47:37;25.30;96.10
10572;DHT22;5334;48.928;12.704;2023-07-31T11:50:04;25.40;95.40
10572;DHT22;5334;48.928;12.704;2023-07-31T11:52:38;25.40;94.40
10572;DHT22;5334;48.928;12.704;2023-07-31T11:55:09;25.20;95.30
10572;DHT22;5334;48.928;12.704;2023-07-31T11:57:45;25.00;95.20
10572;DHT22;5334;48.928;12.704;2023-07-31T12:00:11;24.80;96.20
10572;DHT22;5334;48.928;12.704;2023-07-31T12:02:42;24.80;96.70
10572;DHT22;5334;48.928;12.704;2023-07-31T12:05:12;25.50;96.50
10572;DHT22;5334;48.928;12.704;2023-07-31T12:07:50;25.50;94.80
10572;DHT22;5334;48.928;12.704;2023-07-31T12:10:32;25.70;94.70
10572;DHT22;5334;48.928;12.704;2023-07-31T12:13:09;25.80;95.10
10572;DHT22;5334;48.928;12.704;2023-07-31T12:18:20;26.40;93.40
10572;DHT22;5334;48.928;12.704;2023-07-31T12:20:57;26.60;93.20
10572;DHT22;5334;48.928;12.704;2023-07-31T12:23:25;26.50;93.10
10572;DHT22;5334;48.928;12.704;2023-07-31T12:26:14;26.20;93.20
10572;DHT22;5334;48.928;12.704;2023-07-31T12:28:47;26.40;93.00
10572;DHT22;5334;48.928;12.704;2023-07-31T12:31:21;27.20;93.40
10572;DHT22;5334;48.928;12.704;2023-07-31T12:33:50;27.30;92.60
10572;DHT22;5334;48.928;12.704;2023-07-31T12:36:18;27.50;91.80
10572;DHT22;5334;48.928;12.704;2023-07-31T12:38:44;27.00;91.30
10572;DHT22;5334;48.928;12.704;2023-07-31T12:41:10;26.60;93.10
10572;DHT22;5334;48.928;12.704;2023-07-31T12:43:41;26.40;93.40
10572;DHT22;5334;48.928;12.704;2023-07-31T12:46:10;26.30;93.40
10572;DHT22;5334;48.928;12.704;2023-07-31T12:48:39;26.30;92.50
10572;DHT22;5334;48.928;12.704;2023-07-31T12:51:05;26.50;93.10
10572;DHT22;5334;48.928;12.704;2023-07-31T12:53:41;26.80;92.20
10572;DHT22;5334;48.928;12.704;2023-07-31T12:56:09;27.30;92.10
10572;DHT22;5334;48.928;12.704;2023-07-31T12:58:50;27.80;91.20
10572;DHT22;5334;48.928;12.704;2023-07-31T13:01:19;27.60;92.00
10572;DHT22;5334;48.928;12.704;2023-07-31T13:03:44;27.60;90.60
10572;DHT22;5334;48.928;12.704;2023-07-31T13:06:13;27.60;92.10
10572;DHT22;5334;48.928;12.704;2023-07-31T13:08:39;27.90;90.90
10572;DHT22;5334;48.928;12.704;2023-07-31T13:11:11;28.40;91.20
10572;DHT22;5334;48.928;12.704;2023-07-31T13:13:39;28.20;91.10
10572;DHT22;5334;48.928;12.704;2023-07-31T13:16:14;27.60;90.90
10572;DHT22;5334;48.928;12.704;2023-07-31T13:18:40;27.30;90.80
10572;DHT22;5334;48.928;12.704;2023-07-31T13:21:08;27.50;91.00
10572;DHT22;5334;48.928;12.704;2023-07-31T13:23:37;27.50;91.30
10572;DHT22;5334;48.928;12.704;2023-07-31T13:26:09;27.30;90.40
10572;DHT22;5334;48.928;12.704;2023-07-31T13:28:44;27.20;90.10
10572;DHT22;5334;48.928;12.704;2023-07-31T13:31:09;26.90;90.10
10572;DHT22;5334;48.928;12.704;2023-07-31T13:33:39;26.40;90.90
10572;DHT22;5334;48.928;12.704;2023-07-31T13:36:08;26.30;90.70
10572;DHT22;5334;48.928;12.704;2023-07-31T13:38:34;26.30;90.90
10572;DHT22;5334;48.928;12.704;2023-07-31T13:40:59;26.10;91.40
10572;DHT22;5334;48.928;12.704;2023-07-31T13:43:25;26.10;91.70
10572;DHT22;5334;48.928;12.704;2023-07-31T13:45:51;26.40;91.80
10572;DHT22;5334;48.928;12.704;2023-07-31T13:48:35;26.50;91.30
10572;DHT22;5334;48.928;12.704;2023-07-31T13:51:01;26.20;91.40
10572;DHT22;5334;48.928;12.704;2023-07-31T13:53:30;26.00;91.50
10572;DHT22;5334;48.928;12.704;2023-07-31T13:55:59;26.00;92.10
10572;DHT22;5334;48.928;12.704;2023-07-31T13:58:25;26.50;92.50
10572;DHT22;5334;48.928;12.704;2023-07-31T14:00:50;27.10;92.10
10572;DHT22;5334;48.928;12.704;2023-07-31T14:03:19;27.50;91.70
10572;DHT22;5334;48.928;12.704;2023-07-31T14:05:52;27.30;91.40
10572;DHT22;5334;48.928;12.704;2023-07-31T14:08:21;26.90;90.90
10572;DHT22;5334;48.928;12.704;2023-07-31T14:10:47;26.60;91.20
10572;DHT22;5334;48.928;12.704;2023-07-31T14:13:12;26.50;91.90
10572;DHT22;5334;48.928;12.704;2023-07-31T14:15:44;26.40;91.70
10572;DHT22;5334;48.928;12.704;2023-07-31T14:18:13;26.30;92.10
10572;DHT22;5334;48.928;12.704;2023-07-31T14:20:38;26.60;92.20
10572;DHT22;5334;48.928;12.704;2023-07-31T14:23:10;27.00;91.40
10572;DHT22;5334;48.928;12.704;2023-07-31T14:25:36;27.10;90.70
10572;DHT22;5334;48.928;12.704;2023-07-31T14:28:11;26.80;90.70
10572;DHT22;5334;48.928;12.704;2023-07-31T14:30:39;26.80;90.90
10572;DHT22;5334;48.928;12.704;2023-07-31T14:33:08;27.00;91.30
10572;DHT22;5334;48.928;12.704;2023-07-31T14:35:40;27.10;90.70
10572;DHT22;5334;48.928;12.704;2023-07-31T14:38:05;27.00;90.20
10572;DHT22;5334;48.928;12.704;2023-07-31T14:40:41;26.60;89.30
10572;DHT22;5334;48.928;12.704;2023-07-31T14:43:10;25.90;90.30
10572;DHT22;5334;48.928;12.704;2023-07-31T14:45:38;25.60;90.80
10572;DHT22;5334;48.928;12.704;2023-07-31T14:48:10;25.40;91.00
10572;DHT22;5334;48.928;12.704;2023-07-31T14:50:51;25.20;91.40
10572;DHT22;5334;48.928;12.704;2023-07-31T14:53:17;25.00;91.60
10572;DHT22;5334;48.928;12.704;2023-07-31T14:55:45;25.10;91.70
10572;DHT22;5334;48.928;12.704;2023-07-31T14:58:14;25.10;91.80
10572;DHT22;5334;48.928;12.704;2023-07-31T15:00:40;25.40;92.70
10572;DHT22;5334;48.928;12.704;2023-07-31T15:03:12;25.80;91.90
10572;DHT22;5334;48.928;12.704;2023-07-31T15:05:39;26.40;91.40
10572;DHT22;5334;48.928;12.704;2023-07-31T15:08:09;26.70;90.70
10572;DHT22;5334;48.928;12.704;2023-07-31T15:10:38;26.60;90.50
10572;DHT22;5334;48.928;12.704;2023-07-31T15:13:03;26.30;90.30
10572;DHT22;5334;48.928;12.704;2023-07-31T15:15:29;26.10;91.20
10572;DHT22;5334;48.928;12.704;2023-07-31T15:17:58;26.10;91.20
10572;DHT22;5334;48.928;12.704;2023-07-31T15:20:24;25.90;91.50
10572;DHT22;5334;48.928;12.704;2023-07-31T15:22:53;26.00;91.70
10572;DHT22;5334;48.928;12.704;2023-07-31T15:25:18;26.00;91.30
10572;DHT22;5334;48.928;12.704;2023-07-31T15:27:47;25.80;91.20
10572;DHT22;5334;48.928;12.704;2023-07-31T15:30:13;25.60;91.40
10572;DHT22;5334;48.928;12.704;2023-07-31T15:32:38;25.60;91.50
10572;DHT22;5334;48.928;12.704;2023-07-31T15:35:07;25.50;91.70
10572;DHT22;5334;48.928;12.704;2023-07-31T15:37:36;25.60;91.30
10572;DHT22;5334;48.928;12.704;2023-07-31T15:40:02;25.80;91.70
10572;DHT22;5334;48.928;12.704;2023-07-31T15:42:27;26.10;91.30
10572;DHT22;5334;48.928;12.704;2023-07-31T15:44:56;26.10;91.40
10572;DHT22;5334;48.928;12.704;2023-07-31T15:47:28;26.20;91.30
10572;DHT22;5334;48.928;12.704;2023-07-31T15:49:53;26.00;91.30
10572;DHT22;5334;48.928;12.704;2023-07-31T15:52:22;25.90;91.60
10572;DHT22;5334;48.928;12.704;2023-07-31T15:54:48;25.60;91.40
10572;DHT22;5334;48.928;12.704;2023-07-31T15:57:16;25.30;91.70
10572;DHT22;5334;48.928;12.704;2023-07-31T15:59:48;25.00;92.00
10572;DHT22;5334;48.928;12.704;2023-07-31T16:02:14;24.90;92.00
10572;DHT22;5334;48.928;12.704;2023-07-31T16:04:40;24.80;92.60
10572;DHT22;5334;48.928;12.704;2023-07-31T16:07:06;24.80;92.60
10572;DHT22;5334;48.928;12.704;2023-07-31T16:09:32;24.80;92.90
10572;DHT22;5334;48.928;12.704;2023-07-31T16:11:57;24.70;92.50